sensor_id;sensor_type;location;lat;lon;timestamp;pressure;altitude;pressure_sealevel;temperature;humidity
8318;BME280;4196;48.926;8.964;2022-07-23T00:00:27;98922.19;;;23.75;59.47
8318;BME280;4196;48.926;8.964;2022-07-23T00:03:14;98901.22;;;23.72;59.35
8318;BME280;4196;48.926;8.964;2022-07-23T00:06:00;98902.81;;;23.75;59.03
8318;BME280;4196;48.926;8.964;2022-07-23T00:08:47;98890.81;;;23.69;58.48
8318;BME280;4196;48.926;8.964;2022-07-23T00:11:33;98896.44;;;23.63;59.45
8318;BME280;4196;48.926;8.964;2022-07-23T00:14:20;98905.00;;;23.68;59.39
8318;BME280;4196;48.926;8.964;2022-07-23T00:17:06;98903.69;;;23.75;58.94
8318;BME280;4196;48.926;8.964;2022-07-23T00:19:52;98899.16;;;23.77;58.41
8318;BME280;4196;48.926;8.964;2022-07-23T00:22:50;98873.34;;;23.67;58.32
8318;BME280;4196;48.926;8.964;2022-07-23T00:25:37;98879.03;;;23.75;57.52
8318;BME280;4196;48.926;8.964;2022-07-23T00:28:23;98907.97;;;23.92;57.59
8318;BME280;4196;48.926;8.964;2022-07-23T00:31:10;98897.28;;;23.79;58.80
8318;BME280;4196;48.926;8.964;2022-07-23T00:33:57;98893.13;;;23.75;58.14
8318;BME280;4196;48.926;8.964;2022-07-23T00:36:43;98891.50;;;23.73;57.96
8318;BME280;4196;48.926;8.964;2022-07-23T00:39:29;98896.13;;;23.69;58.20
8318;BME280;4196;48.926;8.964;2022-07-23T00:42:16;98906.16;;;23.62;59.20
8318;BME280;4196;48.926;8.964;2022-07-23T00:45:03;98868.22;;;23.33;60.68
8318;BME280;4196;48.926;8.964;2022-07-23T00:47:50;98858.34;;;23.21;60.03
8318;BME280;4196;48.926;8.964;2022-07-23T00:50:37;98892.38;;;23.42;61.27
8318;BME280;4196;48.926;8.964;2022-07-23T00:53:24;98871.00;;;23.16;61.29
8318;BME280;4196;48.926;8.964;2022-07-23T00:56:12;98895.34;;;23.21;61.92
8318;BME280;4196;48.926;8.964;2022-07-23T00:59:00;98890.41;;;23.15;61.78
8318;BME280;4196;48.926;8.964;2022-07-23T01:01:48;98913.91;;;23.20;62.08
8318;BME280;4196;48.926;8.964;2022-07-23T01:04:35;98917.19;;;23.09;62.78
8318;BME280;4196;48.926;8.964;2022-07-23T01:07:23;98881.69;;;22.81;63.30
8318;BME280;4196;48.926;8.964;2022-07-23T01:10:09;98905.69;;;22.94;63.41
8318;BME280;4196;48.926;8.964;2022-07-23T01:13:15;98878.63;;;22.73;63.92
8318;BME280;4196;48.926;8.964;2022-07-23T01:16:02;98872.00;;;22.66;64.26
8318;BME280;4196;48.926;8.964;2022-07-23T01:18:48;98891.56;;;22.78;64.59
8318;BME280;4196;48.926;8.964;2022-07-23T01:21:40;98881.88;;;22.78;64.93
8318;BME280;4196;48.926;8.964;2022-07-23T01:24:27;98865.34;;;22.75;65.31
8318;BME280;4196;48.926;8.964;2022-07-23T01:27:22;98861.44;;;22.66;65.33
8318;BME280;4196;48.926;8.964;2022-07-23T01:30:13;98869.09;;;22.71;65.66
8318;BME280;4196;48.926;8.964;2022-07-23T01:33:00;98858.78;;;22.66;65.04
8318;BME280;4196;48.926;8.964;2022-07-23T01:35:46;98878.03;;;22.68;65.14
8318;BME280;4196;48.926;8.964;2022-07-23T01:38:38;98849.50;;;22.59;64.57
8318;BME280;4196;48.926;8.964;2022-07-23T01:41:25;98864.19;;;22.64;64.83
8318;BME280;4196;48.926;8.964;2022-07-23T01:44:12;98873.16;;;22.60;65.32
8318;BME280;4196;48.926;8.964;2022-07-23T01:47:00;98883.25;;;22.70;64.39
8318;BME280;4196;48.926;8.964;2022-07-23T01:49:47;98877.09;;;22.69;63.66
8318;BME280;4196;48.926;8.964;2022-07-23T01:52:36;98871.31;;;22.78;62.50
8318;BME280;4196;48.926;8.964;2022-07-23T01:55:23;98856.16;;;22.66;62.45
8318;BME280;4196;48.926;8.964;2022-07-23T01:58:09;98884.09;;;22.70;62.94
8318;BME280;4196;48.926;8.964;2022-07-23T02:00:56;98891.16;;;22.70;62.82
8318;BME280;4196;48.926;8.964;2022-07-23T02:03:42;98877.97;;;22.54;63.21
8318;BME280;4196;48.926;8.964;2022-07-23T02:06:29;98872.06;;;22.49;62.95
8318;BME280;4196;48.926;8.964;2022-07-23T02:09:16;98859.53;;;22.36;63.04
8318;BME280;4196;48.926;8.964;2022-07-23T02:12:03;98835.00;;;22.18;63.35
8318;BME280;4196;48.926;8.964;2022-07-23T02:14:49;98865.75;;;22.35;64.20
8318;BME280;4196;48.926;8.964;2022-07-23T02:17:35;98877.38;;;22.31;65.66
8318;BME280;4196;48.926;8.964;2022-07-23T02:20:22;98888.91;;;22.13;66.76
8318;BME280;4196;48.926;8.964;2022-07-23T02:23:08;98872.47;;;21.90;68.97
8318;BME280;4196;48.926;8.964;2022-07-23T02:25:55;98907.38;;;21.95;69.95
8318;BME280;4196;48.926;8.964;2022-07-23T02:28:41;98930.25;;;21.95;69.90
8318;BME280;4196;48.926;8.964;2022-07-23T02:31:29;98942.41;;;21.98;69.55
8318;BME280;4196;48.926;8.964;2022-07-23T02:34:15;98944.44;;;21.92;68.83
8318;BME280;4196;48.926;8.964;2022-07-23T02:37:02;98943.03;;;21.85;69.30
8318;BME280;4196;48.926;8.964;2022-07-23T02:39:50;98947.72;;;21.80;69.45
8318;BME280;4196;48.926;8.964;2022-07-23T02:42:36;98940.41;;;21.85;67.75
8318;BME280;4196;48.926;8.964;2022-07-23T02:45:24;98955.84;;;21.93;66.86
8318;BME280;4196;48.926;8.964;2022-07-23T02:48:12;98910.16;;;21.75;65.67
8318;BME280;4196;48.926;8.964;2022-07-23T02:51:02;98931.88;;;21.98;64.80
8318;BME280;4196;48.926;8.964;2022-07-23T02:53:54;98947.84;;;22.12;63.41
8318;BME280;4196;48.926;8.964;2022-07-23T02:56:41;98948.94;;;22.08;63.83
8318;BME280;4196;48.926;8.964;2022-07-23T02:59:27;98955.69;;;22.13;62.96
8318;BME280;4196;48.926;8.964;2022-07-23T03:02:13;98962.06;;;22.09;63.34
8318;BME280;4196;48.926;8.964;2022-07-23T03:05:00;98973.31;;;22.13;63.13
8318;BME280;4196;48.926;8.964;2022-07-23T03:07:47;98968.63;;;22.01;63.56
8318;BME280;4196;48.926;8.964;2022-07-23T03:10:33;98954.81;;;21.78;63.93
8318;BME280;4196;48.926;8.964;2022-07-23T03:13:20;98985.44;;;21.98;65.00
8318;BME280;4196;48.926;8.964;2022-07-23T03:16:07;98967.84;;;21.81;65.30
8318;BME280;4196;48.926;8.964;2022-07-23T03:18:55;98956.53;;;21.62;65.80
8318;BME280;4196;48.926;8.964;2022-07-23T03:21:41;98978.31;;;21.65;67.13
8318;BME280;4196;48.926;8.964;2022-07-23T03:24:28;98971.94;;;21.52;68.62
8318;BME280;4196;48.926;8.964;2022-07-23T03:27:33;98966.56;;;21.36;69.87
8318;BME280;4196;48.926;8.964;2022-07-23T03:30:20;98966.19;;;21.25;70.72
8318;BME280;4196;48.926;8.964;2022-07-23T03:33:07;98988.16;;;21.24;72.38
8318;BME280;4196;48.926;8.964;2022-07-23T03:35:54;98976.78;;;21.05;73.79
8318;BME280;4196;48.926;8.964;2022-07-23T03:38:44;98985.63;;;21.04;72.04
8318;BME280;4196;48.926;8.964;2022-07-23T03:41:31;98983.72;;;21.07;71.13
8318;BME280;4196;48.926;8.964;2022-07-23T03:44:18;98985.19;;;21.13;72.10
8318;BME280;4196;48.926;8.964;2022-07-23T03:47:05;98991.38;;;21.12;76.35
8318;BME280;4196;48.926;8.964;2022-07-23T03:49:52;98989.31;;;20.99;77.98
8318;BME280;4196;48.926;8.964;2022-07-23T03:52:38;98990.59;;;20.91;83.41
8318;BME280;4196;48.926;8.964;2022-07-23T03:55:25;98999.50;;;20.88;86.81
8318;BME280;4196;48.926;8.964;2022-07-23T03:58:12;98976.78;;;20.67;90.46
8318;BME280;4196;48.926;8.964;2022-07-23T04:00:59;98997.56;;;20.73;88.56
8318;BME280;4196;48.926;8.964;2022-07-23T04:03:45;98990.56;;;20.72;85.43
8318;BME280;4196;48.926;8.964;2022-07-23T04:06:33;98988.03;;;20.70;90.41
8318;BME280;4196;48.926;8.964;2022-07-23T04:09:19;99003.09;;;20.67;91.42
8318;BME280;4196;48.926;8.964;2022-07-23T04:12:07;98969.16;;;20.40;92.69
8318;BME280;4196;48.926;8.964;2022-07-23T04:14:53;99007.31;;;20.50;92.49
8318;BME280;4196;48.926;8.964;2022-07-23T04:17:40;99013.38;;;20.53;91.80
8318;BME280;4196;48.926;8.964;2022-07-23T04:20:27;98983.22;;;20.39;90.54
8318;BME280;4196;48.926;8.964;2022-07-23T04:23:17;99008.91;;;20.55;89.93
8318;BME280;4196;48.926;8.964;2022-07-23T04:26:05;98985.66;;;20.44;86.56
8318;BME280;4196;48.926;8.964;2022-07-23T04:28:53;99013.63;;;20.67;83.82
8318;BME280;4196;48.926;8.964;2022-07-23T04:31:39;99004.66;;;20.71;84.33
8318;BME280;4196;48.926;8.964;2022-07-23T04:34:26;99009.78;;;20.74;88.37
8318;BME280;4196;48.926;8.964;2022-07-23T04:37:14;98999.78;;;20.62;90.48
8318;BME280;4196;48.926;8.964;2022-07-23T04:40:00;99009.91;;;20.71;91.96
8318;BME280;4196;48.926;8.964;2022-07-23T04:42:47;99014.38;;;20.69;94.37
8318;BME280;4196;48.926;8.964;2022-07-23T04:45:33;99027.19;;;20.77;93.57
8318;BME280;4196;48.926;8.964;2022-07-23T04:48:20;98998.81;;;20.64;84.92
8318;BME280;4196;48.926;8.964;2022-07-23T04:51:13;99039.50;;;20.76;84.47
8318;BME280;4196;48.926;8.964;2022-07-23T04:54:00;99048.25;;;20.77;81.38
8318;BME280;4196;48.926;8.964;2022-07-23T04:56:46;99041.47;;;20.91;79.32
8318;BME280;4196;48.926;8.964;2022-07-23T04:59:33;99041.25;;;20.96;78.35
8318;BME280;4196;48.926;8.964;2022-07-23T05:02:22;99029.88;;;20.95;77.49
8318;BME280;4196;48.926;8.964;2022-07-23T05:05:09;99021.50;;;21.06;76.40
8318;BME280;4196;48.926;8.964;2022-07-23T05:07:56;99004.69;;;20.90;74.47
8318;BME280;4196;48.926;8.964;2022-07-23T05:10:42;99023.41;;;21.03;74.65
8318;BME280;4196;48.926;8.964;2022-07-23T05:13:29;99024.91;;;21.08;73.63
8318;BME280;4196;48.926;8.964;2022-07-23T05:16:16;99046.56;;;21.34;73.07
8318;BME280;4196;48.926;8.964;2022-07-23T05:19:02;99035.28;;;21.30;75.70
8318;BME280;4196;48.926;8.964;2022-07-23T05:21:52;99057.47;;;21.45;78.87
8318;BME280;4196;48.926;8.964;2022-07-23T05:24:39;99043.09;;;21.32;84.77
8318;BME280;4196;48.926;8.964;2022-07-23T05:27:27;99024.88;;;21.27;86.76
8318;BME280;4196;48.926;8.964;2022-07-23T05:30:14;99060.78;;;21.30;82.35
8318;BME280;4196;48.926;8.964;2022-07-23T05:33:04;99042.84;;;21.19;82.18
8318;BME280;4196;48.926;8.964;2022-07-23T05:35:50;99064.91;;;21.35;83.92
8318;BME280;4196;48.926;8.964;2022-07-23T05:38:59;99092.56;;;21.45;88.33
8318;BME280;4196;48.926;8.964;2022-07-23T05:41:48;99092.78;;;21.41;87.78
8318;BME280;4196;48.926;8.964;2022-07-23T05:44:35;99099.06;;;21.18;82.35
8318;BME280;4196;48.926;8.964;2022-07-23T05:47:21;99085.09;;;21.16;84.09
8318;BME280;4196;48.926;8.964;2022-07-23T05:50:08;99092.25;;;21.14;81.86
8318;BME280;4196;48.926;8.964;2022-07-23T05:53:01;99078.47;;;20.88;89.17
8318;BME280;4196;48.926;8.964;2022-07-23T05:55:48;99104.66;;;20.91;81.30
8318;BME280;4196;48.926;8.964;2022-07-23T05:58:35;99101.59;;;21.01;81.58
8318;BME280;4196;48.926;8.964;2022-07-23T06:01:22;99067.00;;;20.89;80.78
8318;BME280;4196;48.926;8.964;2022-07-23T06:04:16;99065.44;;;20.85;79.01
8318;BME280;4196;48.926;8.964;2022-07-23T06:07:16;99065.69;;;20.79;79.38
8318;BME280;4196;48.926;8.964;2022-07-23T06:10:04;99077.53;;;20.89;80.39
8318;BME280;4196;48.926;8.964;2022-07-23T06:12:50;99058.47;;;20.84;80.53
8318;BME280;4196;48.926;8.964;2022-07-23T06:15:37;99055.47;;;20.73;81.78
8318;BME280;4196;48.926;8.964;2022-07-23T06:18:24;99072.66;;;20.80;82.72
8318;BME280;4196;48.926;8.964;2022-07-23T06:21:12;99059.25;;;20.86;83.76
8318;BME280;4196;48.926;8.964;2022-07-23T06:24:19;99087.47;;;21.22;79.99
8318;BME280;4196;48.926;8.964;2022-07-23T06:27:07;99088.72;;;21.53;80.68
8318;BME280;4196;48.926;8.964;2022-07-23T06:29:54;99074.41;;;21.58;80.07
8318;BME280;4196;48.926;8.964;2022-07-23T06:32:40;99122.75;;;21.76;79.49
8318;BME280;4196;48.926;8.964;2022-07-23T06:35:27;99116.34;;;21.63;80.49
8318;BME280;4196;48.926;8.964;2022-07-23T06:38:13;99168.06;;;21.65;80.87
8318;BME280;4196;48.926;8.964;2022-07-23T06:41:00;99172.59;;;21.43;81.87
8318;BME280;4196;48.926;8.964;2022-07-23T06:43:47;99161.13;;;21.23;84.43
8318;BME280;4196;48.926;8.964;2022-07-23T06:46:35;99189.66;;;21.14;92.24
8318;BME280;4196;48.926;8.964;2022-07-23T06:49:21;99178.47;;;20.68;96.92
8318;BME280;4196;48.926;8.964;2022-07-23T06:52:08;99200.97;;;20.31;99.29
8318;BME280;4196;48.926;8.964;2022-07-23T06:54:55;99188.72;;;19.86;100.00
8318;BME280;4196;48.926;8.964;2022-07-23T06:57:41;99168.72;;;19.35;100.00
8318;BME280;4196;48.926;8.964;2022-07-23T07:00:28;99168.47;;;19.18;100.00
8318;BME280;4196;48.926;8.964;2022-07-23T07:03:14;99173.50;;;18.99;100.00
8318;BME280;4196;48.926;8.964;2022-07-23T07:06:02;99168.91;;;19.05;100.00
8318;BME280;4196;48.926;8.964;2022-07-23T07:08:49;99138.69;;;18.69;100.00
8318;BME280;4196;48.926;8.964;2022-07-23T07:11:35;99165.50;;;18.78;100.00
8318;BME280;4196;48.926;8.964;2022-07-23T07:14:22;99156.06;;;18.98;100.00
8318;BME280;4196;48.926;8.964;2022-07-23T07:17:08;99107.34;;;18.91;100.00
8318;BME280;4196;48.926;8.964;2022-07-23T07:19:57;99149.88;;;19.47;100.00
8318;BME280;4196;48.926;8.964;2022-07-23T07:22:43;99142.81;;;19.73;100.00
8318;BME280;4196;48.926;8.964;2022-07-23T07:25:29;99159.44;;;20.17;100.00
8318;BME280;4196;48.926;8.964;2022-07-23T07:28:16;99118.91;;;20.23;100.00
8318;BME280;4196;48.926;8.964;2022-07-23T07:31:02;99142.91;;;20.58;100.00
8318;BME280;4196;48.926;8.964;2022-07-23T07:33:49;99095.03;;;20.49;100.00
8318;BME280;4196;48.926;8.964;2022-07-23T07:36:35;99162.28;;;21.18;100.00
8318;BME280;4196;48.926;8.964;2022-07-23T07:39:23;99125.25;;;21.41;100.00
8318;BME280;4196;48.926;8.964;2022-07-23T07:42:09;99117.19;;;21.82;100.00
8318;BME280;4196;48.926;8.964;2022-07-23T07:44:55;99162.91;;;22.19;98.62
8318;BME280;4196;48.926;8.964;2022-07-23T07:47:42;99140.69;;;22.06;97.09
8318;BME280;4196;48.926;8.964;2022-07-23T07:50:28;99154.16;;;22.00;100.00
8318;BME280;4196;48.926;8.964;2022-07-23T07:53:16;99137.84;;;21.91;100.00
8318;BME280;4196;48.926;8.964;2022-07-23T07:56:04;99150.50;;;21.83;100.00
8318;BME280;4196;48.926;8.964;2022-07-23T07:58:51;99159.63;;;21.57;100.00
8318;BME280;4196;48.926;8.964;2022-07-23T08:01:37;99159.09;;;21.51;100.00
8318;BME280;4196;48.926;8.964;2022-07-23T08:04:24;99160.91;;;21.28;100.00
8318;BME280;4196;48.926;8.964;2022-07-23T08:07:10;99149.63;;;21.06;100.00
8318;BME280;4196;48.926;8.964;2022-07-23T08:09:57;99145.31;;;20.84;100.00
8318;BME280;4196;48.926;8.964;2022-07-23T08:12:49;99193.34;;;20.89;100.00
8318;BME280;4196;48.926;8.964;2022-07-23T08:15:36;99174.91;;;20.69;100.00
8318;BME280;4196;48.926;8.964;2022-07-23T08:18:22;99191.56;;;20.69;100.00
8318;BME280;4196;48.926;8.964;2022-07-23T08:21:08;99192.41;;;20.70;100.00
8318;BME280;4196;48.926;8.964;2022-07-23T08:23:54;99153.41;;;20.59;100.00
8318;BME280;4196;48.926;8.964;2022-07-23T08:26:41;99189.38;;;20.79;100.00
8318;BME280;4196;48.926;8.964;2022-07-23T08:29:27;99193.44;;;20.88;100.00
8318;BME280;4196;48.926;8.964;2022-07-23T08:32:14;99183.53;;;20.93;100.00
8318;BME280;4196;48.926;8.964;2022-07-23T08:35:30;99186.69;;;21.01;100.00
8318;BME280;4196;48.926;8.964;2022-07-23T08:38:19;99198.00;;;21.23;100.00
8318;BME280;4196;48.926;8.964;2022-07-23T08:41:07;99191.75;;;21.26;100.00
8318;BME280;4196;48.926;8.964;2022-07-23T08:43:54;99201.50;;;21.44;100.00
8318;BME280;4196;48.926;8.964;2022-07-23T08:46:40;99173.28;;;21.46;100.00
8318;BME280;4196;48.926;8.964;2022-07-23T08:49:29;99186.16;;;21.92;100.00
8318;BME280;4196;48.926;8.964;2022-07-23T08:52:17;99164.31;;;22.26;97.87
8318;BME280;4196;48.926;8.964;2022-07-23T08:55:04;99174.31;;;22.73;96.82
8318;BME280;4196;48.926;8.964;2022-07-23T08:57:52;99184.41;;;23.00;95.23
8318;BME280;4196;48.926;8.964;2022-07-23T09:00:39;99189.16;;;23.44;89.57
8318;BME280;4196;48.926;8.964;2022-07-23T09:03:30;99180.91;;;23.50;90.77
8318;BME280;4196;48.926;8.964;2022-07-23T09:06:17;99186.78;;;23.55;81.28
8318;BME280;4196;48.926;8.964;2022-07-23T09:09:17;99179.13;;;23.50;85.61
8318;BME280;4196;48.926;8.964;2022-07-23T09:12:05;99181.25;;;23.59;81.47
8318;BME280;4196;48.926;8.964;2022-07-23T09:14:52;99164.53;;;23.43;79.80
8318;BME280;4196;48.926;8.964;2022-07-23T09:17:40;99179.53;;;23.43;76.66
8318;BME280;4196;48.926;8.964;2022-07-23T09:20:27;99180.00;;;23.33;74.75
8318;BME280;4196;48.926;8.964;2022-07-23T09:23:14;99175.63;;;23.50;78.91
8318;BME280;4196;48.926;8.964;2022-07-23T09:26:02;99172.72;;;23.54;82.57
8318;BME280;4196;48.926;8.964;2022-07-23T09:28:54;99195.72;;;23.70;81.58
8318;BME280;4196;48.926;8.964;2022-07-23T09:31:58;99153.16;;;23.74;81.39
8318;BME280;4196;48.926;8.964;2022-07-23T09:34:49;99178.59;;;23.93;78.75
8318;BME280;4196;48.926;8.964;2022-07-23T09:37:35;99194.63;;;23.90;80.76
8318;BME280;4196;48.926;8.964;2022-07-23T09:40:22;99177.41;;;23.82;75.55
8318;BME280;4196;48.926;8.964;2022-07-23T09:43:08;99186.63;;;23.91;79.12
8318;BME280;4196;48.926;8.964;2022-07-23T09:49:11;99202.66;;;24.04;74.21
8318;BME280;4196;48.926;8.964;2022-07-23T09:51:59;99203.84;;;23.82;75.62
8318;BME280;4196;48.926;8.964;2022-07-23T09:55:00;99198.91;;;23.92;80.52
8318;BME280;4196;48.926;8.964;2022-07-23T09:57:47;99175.59;;;23.99;76.99
8318;BME280;4196;48.926;8.964;2022-07-23T10:00:40;99175.19;;;24.06;76.29
8318;BME280;4196;48.926;8.964;2022-07-23T10:03:26;99175.78;;;23.96;66.06
8318;BME280;4196;48.926;8.964;2022-07-23T10:06:55;99196.50;;;24.35;67.99
8318;BME280;4196;48.926;8.964;2022-07-23T10:10:03;99192.22;;;24.32;70.72
8318;BME280;4196;48.926;8.964;2022-07-23T10:13:08;99178.38;;;24.59;67.69
8318;BME280;4196;48.926;8.964;2022-07-23T10:16:13;99184.84;;;24.69;66.93
8318;BME280;4196;48.926;8.964;2022-07-23T10:19:12;99176.31;;;24.64;65.30
8318;BME280;4196;48.926;8.964;2022-07-23T10:22:01;99173.84;;;24.91;67.20
8318;BME280;4196;48.926;8.964;2022-07-23T10:24:57;99192.16;;;25.10;64.18
8318;BME280;4196;48.926;8.964;2022-07-23T10:37:37;99181.78;;;25.50;57.66
8318;BME280;4196;48.926;8.964;2022-07-23T10:40:24;99167.66;;;25.35;59.87
8318;BME280;4196;48.926;8.964;2022-07-23T10:43:15;99169.34;;;25.65;62.64
8318;BME280;4196;48.926;8.964;2022-07-23T10:46:24;99169.66;;;25.89;62.76
8318;BME280;4196;48.926;8.964;2022-07-23T10:49:23;99176.91;;;25.99;58.94
8318;BME280;4196;48.926;8.964;2022-07-23T10:57:49;99170.00;;;26.24;59.83
8318;BME280;4196;48.926;8.964;2022-07-23T11:00:36;99174.50;;;26.36;61.54
8318;BME280;4196;48.926;8.964;2022-07-23T11:03:55;99185.16;;;26.63;57.54
8318;BME280;4196;48.926;8.964;2022-07-23T11:09:41;99186.19;;;26.61;56.12
8318;BME280;4196;48.926;8.964;2022-07-23T11:15:15;99167.50;;;26.08;58.67
8318;BME280;4196;48.926;8.964;2022-07-23T11:18:02;99175.56;;;26.48;58.41
8318;BME280;4196;48.926;8.964;2022-07-23T11:20:48;99159.13;;;26.68;55.93
8318;BME280;4196;48.926;8.964;2022-07-23T11:26:58;99169.63;;;26.57;53.96
8318;BME280;4196;48.926;8.964;2022-07-23T11:29:45;99137.75;;;26.57;57.34
8318;BME280;4196;48.926;8.964;2022-07-23T11:32:43;99174.38;;;26.92;55.62
8318;BME280;4196;48.926;8.964;2022-07-23T11:35:29;99106.75;;;26.70;55.23
8318;BME280;4196;48.926;8.964;2022-07-23T11:38:20;99161.00;;;27.32;56.37
8318;BME280;4196;48.926;8.964;2022-07-23T11:41:07;99146.31;;;27.13;54.49
8318;BME280;4196;48.926;8.964;2022-07-23T11:43:54;99166.94;;;27.35;53.29
8318;BME280;4196;48.926;8.964;2022-07-23T11:46:40;99133.56;;;26.93;55.09
8318;BME280;4196;48.926;8.964;2022-07-23T11:49:27;99156.84;;;27.28;55.41
8318;BME280;4196;48.926;8.964;2022-07-23T11:52:14;99155.25;;;27.51;54.16
8318;BME280;4196;48.926;8.964;2022-07-23T11:55:07;99154.72;;;27.58;55.20
8318;BME280;4196;48.926;8.964;2022-07-23T11:57:55;99125.25;;;27.49;54.36
8318;BME280;4196;48.926;8.964;2022-07-23T12:00:42;99135.00;;;27.61;53.98
8318;BME280;4196;48.926;8.964;2022-07-23T12:03:28;99151.06;;;27.85;53.00
8318;BME280;4196;48.926;8.964;2022-07-23T12:06:15;99152.25;;;27.81;51.33
8318;BME280;4196;48.926;8.964;2022-07-23T12:09:02;99126.28;;;27.59;51.80
8318;BME280;4196;48.926;8.964;2022-07-23T12:11:59;99144.75;;;27.86;51.65
8318;BME280;4196;48.926;8.964;2022-07-23T12:14:55;99149.03;;;27.76;53.73
8318;BME280;4196;48.926;8.964;2022-07-23T12:17:44;99123.94;;;27.67;50.73
8318;BME280;4196;48.926;8.964;2022-07-23T12:20:44;99148.72;;;27.67;53.48
8318;BME280;4196;48.926;8.964;2022-07-23T12:23:31;99131.09;;;28.03;51.50
8318;BME280;4196;48.926;8.964;2022-07-23T12:26:17;99142.69;;;28.39;49.97
8318;BME280;4196;48.926;8.964;2022-07-23T12:29:04;99129.41;;;28.50;49.23
8318;BME280;4196;48.926;8.964;2022-07-23T12:31:50;99145.28;;;28.63;48.88
8318;BME280;4196;48.926;8.964;2022-07-23T12:34:38;99111.22;;;28.31;50.62
8318;BME280;4196;48.926;8.964;2022-07-23T12:37:36;99129.03;;;27.57;50.11
8318;BME280;4196;48.926;8.964;2022-07-23T12:40:29;99138.59;;;27.85;52.20
8318;BME280;4196;48.926;8.964;2022-07-23T12:43:25;99141.59;;;28.05;52.37
8318;BME280;4196;48.926;8.964;2022-07-23T12:46:15;99131.38;;;27.75;50.14
8318;BME280;4196;48.926;8.964;2022-07-23T12:49:02;99120.22;;;28.06;51.34
8318;BME280;4196;48.926;8.964;2022-07-23T12:51:50;99140.59;;;28.18;48.78
8318;BME280;4196;48.926;8.964;2022-07-23T12:54:36;99135.94;;;28.09;50.80
8318;BME280;4196;48.926;8.964;2022-07-23T12:57:44;99140.59;;;28.18;48.80
8318;BME280;4196;48.926;8.964;2022-07-23T13:00:32;99117.13;;;27.76;48.81
8318;BME280;4196;48.926;8.964;2022-07-23T13:03:40;99142.91;;;28.23;47.60
8318;BME280;4196;48.926;8.964;2022-07-23T13:06:29;99133.34;;;28.21;46.94
8318;BME280;4196;48.926;8.964;2022-07-23T13:09:22;99132.22;;;27.88;46.10
8318;BME280;4196;48.926;8.964;2022-07-23T13:12:10;99129.63;;;27.86;47.31
8318;BME280;4196;48.926;8.964;2022-07-23T13:14:58;99108.19;;;27.77;45.92
8318;BME280;4196;48.926;8.964;2022-07-23T13:17:44;99133.59;;;28.17;48.76
8318;BME280;4196;48.926;8.964;2022-07-23T13:20:31;99118.03;;;28.59;47.22
8318;BME280;4196;48.926;8.964;2022-07-23T13:23:20;99105.81;;;28.68;46.15
8318;BME280;4196;48.926;8.964;2022-07-23T13:26:07;99121.38;;;28.97;44.57
8318;BME280;4196;48.926;8.964;2022-07-23T13:28:54;99103.88;;;29.05;44.04
8318;BME280;4196;48.926;8.964;2022-07-23T13:31:40;99099.84;;;29.22;46.13
8318;BME280;4196;48.926;8.964;2022-07-23T13:34:27;99119.34;;;29.56;44.79
8318;BME280;4196;48.926;8.964;2022-07-23T13:37:13;99121.06;;;29.80;46.53
8318;BME280;4196;48.926;8.964;2022-07-23T13:40:00;99110.84;;;29.85;42.20
8318;BME280;4196;48.926;8.964;2022-07-23T13:43:02;99106.69;;;29.92;43.03
8318;BME280;4196;48.926;8.964;2022-07-23T13:45:53;99104.09;;;29.70;41.47
8318;BME280;4196;48.926;8.964;2022-07-23T13:48:39;99111.34;;;29.45;42.44
8318;BME280;4196;48.926;8.964;2022-07-23T13:51:26;99121.31;;;29.77;42.83
8318;BME280;4196;48.926;8.964;2022-07-23T13:54:14;99111.78;;;29.95;43.92
8318;BME280;4196;48.926;8.964;2022-07-23T13:57:00;99099.84;;;29.67;41.37
8318;BME280;4196;48.926;8.964;2022-07-23T13:59:47;99081.31;;;28.98;41.85
8318;BME280;4196;48.926;8.964;2022-07-23T14:02:35;99106.69;;;28.69;43.31
8318;BME280;4196;48.926;8.964;2022-07-23T14:05:23;99101.81;;;28.62;44.29
8318;BME280;4196;48.926;8.964;2022-07-23T14:08:09;99083.63;;;28.68;44.51
8318;BME280;4196;48.926;8.964;2022-07-23T14:10:56;99103.88;;;29.39;44.58
8318;BME280;4196;48.926;8.964;2022-07-23T14:13:44;99106.50;;;29.84;42.83
8318;BME280;4196;48.926;8.964;2022-07-23T14:16:31;99103.84;;;30.16;41.58
8318;BME280;4196;48.926;8.964;2022-07-23T14:19:19;99091.72;;;30.44;40.34
8318;BME280;4196;48.926;8.964;2022-07-23T14:22:05;99089.28;;;30.41;40.76
8318;BME280;4196;48.926;8.964;2022-07-23T14:24:52;99103.84;;;30.48;40.83
8318;BME280;4196;48.926;8.964;2022-07-23T14:27:38;99097.22;;;30.64;38.71
8318;BME280;4196;48.926;8.964;2022-07-23T14:30:25;99096.16;;;30.55;40.24
8318;BME280;4196;48.926;8.964;2022-07-23T14:33:19;99082.84;;;30.12;40.12
8318;BME280;4196;48.926;8.964;2022-07-23T14:36:06;99093.00;;;29.85;40.90
8318;BME280;4196;48.926;8.964;2022-07-23T14:39:00;99106.88;;;30.23;41.80
8318;BME280;4196;48.926;8.964;2022-07-23T14:41:48;99107.19;;;30.62;39.65
8318;BME280;4196;48.926;8.964;2022-07-23T14:44:35;99115.81;;;30.86;38.72
8318;BME280;4196;48.926;8.964;2022-07-23T14:47:22;99104.63;;;31.02;38.92
8318;BME280;4196;48.926;8.964;2022-07-23T14:50:10;99074.97;;;30.63;38.47
8318;BME280;4196;48.926;8.964;2022-07-23T14:52:56;99098.44;;;31.01;39.06
8318;BME280;4196;48.926;8.964;2022-07-23T14:55:43;99063.88;;;30.15;39.76
8318;BME280;4196;48.926;8.964;2022-07-23T14:58:29;99098.03;;;30.43;39.26
8318;BME280;4196;48.926;8.964;2022-07-23T15:01:15;99088.25;;;30.32;40.29
8318;BME280;4196;48.926;8.964;2022-07-23T15:04:04;99106.91;;;30.44;42.98
8318;BME280;4196;48.926;8.964;2022-07-23T15:07:11;99098.28;;;30.40;40.48
8318;BME280;4196;48.926;8.964;2022-07-23T15:09:57;99090.41;;;30.39;42.53
8318;BME280;4196;48.926;8.964;2022-07-23T15:12:44;99097.63;;;30.16;42.14
8318;BME280;4196;48.926;8.964;2022-07-23T15:15:32;99091.22;;;29.52;41.84
8318;BME280;4196;48.926;8.964;2022-07-23T15:18:18;99093.88;;;29.52;42.08
8318;BME280;4196;48.926;8.964;2022-07-23T15:21:05;99072.34;;;29.22;42.99
8318;BME280;4196;48.926;8.964;2022-07-23T15:23:53;99090.00;;;29.45;43.22
8318;BME280;4196;48.926;8.964;2022-07-23T15:26:41;99089.28;;;29.54;41.72
8318;BME280;4196;48.926;8.964;2022-07-23T15:29:27;99087.59;;;29.53;42.04
8318;BME280;4196;48.926;8.964;2022-07-23T15:32:14;99108.19;;;29.74;41.98
8318;BME280;4196;48.926;8.964;2022-07-23T15:35:01;99088.69;;;29.62;43.00
8318;BME280;4196;48.926;8.964;2022-07-23T15:37:48;99081.91;;;29.35;42.32
8318;BME280;4196;48.926;8.964;2022-07-23T15:40:35;99102.28;;;29.59;43.44
8318;BME280;4196;48.926;8.964;2022-07-23T15:43:24;99107.50;;;29.60;42.92